Time;durP1;ratioP1;P1;durP2;ratioP2;P2;SDS_P1;SDS_P2;PMS_P1;PMS_P2;Temp;Humidity;BMP_temperature;BMP_pressure;BME280_temperature;BME280_humidity;BME280_pressure;Samples;Min_cycle;Max_cycle;Signal;HPM_P1;HPM_P2
2021/12/20 00:00:34;;;;;;;4.00;2.30;;;;;;;3.45;78.06;97462.23;24414;1355;3026703;-66
2021/12/20 00:03:03;;;;;;;2.80;2.10;;;;;;;4.09;76.74;97456.40;24434;1361;3028181;-68
2021/12/20 00:05:52;;;;;;;5.70;3.30;;;;;;;4.69;74.35;97453.39;24450;1357;3056309;-66
2021/12/20 00:08:21;;;;;;;5.60;3.30;;;;;;;4.42;74.43;97453.34;24422;1356;3026882;-65
2021/12/20 00:10:52;;;;;;;4.00;2.30;;;;;;;3.92;75.95;97464.27;24454;1357;3026478;-67
2021/12/20 00:13:22;;;;;;;3.00;2.00;;;;;;;3.67;76.08;97470.72;24428;1355;3026351;-65
2021/12/20 00:15:55;;;;;;;3.00;2.10;;;;;;;3.38;76.64;97467.54;24433;1356;3051600;-63
2021/12/20 00:18:44;;;;;;;2.60;2.00;;;;;;;3.29;77.47;97464.96;24480;1363;3052709;-66
2021/12/20 00:21:12;;;;;;;2.70;1.90;;;;;;;3.68;76.38;97458.02;24512;1355;3030099;-67
2021/12/20 00:23:43;;;;;;;3.40;2.10;;;;;;;4.04;74.63;97459.45;24455;1360;3052268;-67
2021/12/20 00:26:12;;;;;;;3.40;1.90;;;;;;;3.90;74.49;97463.71;24486;1359;3026878;-67
2021/12/20 00:28:41;;;;;;;3.20;2.30;;;;;;;3.73;74.99;97455.94;24440;1356;3055401;-67
2021/12/20 00:31:11;;;;;;;3.00;1.80;;;;;;;3.46;75.74;97469.63;24432;1357;3026255;-63
2021/12/20 00:33:41;;;;;;;2.80;2.10;;;;;;;3.39;76.42;97469.02;24458;1355;3026465;-67
2021/12/20 00:36:09;;;;;;;3.80;2.00;;;;;;;3.18;77.61;97479.16;24421;1357;3055728;-67
2021/12/20 00:41:26;;;;;;;3.70;2.00;;;;;;;4.08;75.05;97475.52;24434;1357;3053024;-67
2021/12/20 00:43:56;;;;;;;2.60;2.00;;;;;;;4.19;74.09;97468.85;24460;1359;3026777;-65
2021/12/20 00:46:26;;;;;;;3.00;2.40;;;;;;;3.62;75.22;97477.45;24404;1358;3050040;-67
2021/12/20 00:48:55;;;;;;;4.30;2.50;;;;;;;3.35;75.78;97476.34;24483;1355;3026570;-68
2021/12/20 00:51:25;;;;;;;3.40;2.20;;;;;;;3.19;75.62;97483.42;24453;1355;3026377;-68
2021/12/20 00:53:54;;;;;;;3.60;2.50;;;;;;;2.93;76.10;97478.25;24475;1358;3049567;-65
2021/12/20 00:56:23;;;;;;;5.00;2.30;;;;;;;2.81;76.69;97478.13;24486;1357;3026355;-67
2021/12/20 00:58:51;;;;;;;4.60;2.20;;;;;;;3.42;75.91;97477.67;24446;1363;3058544;-63
2021/12/20 01:01:20;;;;;;;2.50;1.70;;;;;;;4.06;73.11;97478.42;24437;1357;3027070;-64
2021/12/20 01:03:49;;;;;;;3.60;2.40;;;;;;;3.94;72.68;97473.14;24449;1357;3055046;-67
2021/12/20 01:06:19;;;;;;;3.60;2.60;;;;;;;3.67;73.37;97486.98;24458;1359;3026427;-66
2021/12/20 01:08:49;;;;;;;5.20;2.90;;;;;;;3.46;74.16;97478.77;24405;1356;3026771;-66
2021/12/20 01:11:23;;;;;;;4.50;3.00;;;;;;;3.27;74.49;97478.94;24462;1356;3027511;-66
2021/12/20 01:13:54;;;;;;;7.40;3.10;;;;;;;3.05;75.24;97474.80;24453;1355;3051153;-63
2021/12/20 01:16:30;;;;;;;3.90;3.00;;;;;;;2.95;75.75;97483.33;24458;1357;3027153;-66
2021/12/20 01:19:08;;;;;;;2.70;2.00;;;;;;;2.85;76.14;97480.15;24411;1363;3051822;-65
2021/12/20 01:21:37;;;;;;;6.00;2.80;;;;;;;3.39;73.99;97478.18;24487;1360;3028464;-64
2021/12/20 01:24:06;;;;;;;6.80;3.30;;;;;;;3.57;73.06;97482.96;24437;1362;3066837;-65
2021/12/20 01:26:35;;;;;;;5.50;3.10;;;;;;;3.71;72.37;97481.73;24420;1357;3029557;-65
2021/12/20 01:29:04;;;;;;;8.40;3.60;;;;;;;3.50;72.72;97480.77;24450;1351;3051198;-66
2021/12/20 01:31:33;;;;;;;6.20;2.90;;;;;;;3.16;72.72;97493.98;24431;1360;3026202;-66
2021/12/20 01:34:02;;;;;;;5.30;3.10;;;;;;;2.97;72.97;97486.98;24401;1360;3056192;-65
2021/12/20 01:36:31;;;;;;;5.70;3.10;;;;;;;2.85;73.97;97494.48;24474;1358;3026727;-66
2021/12/20 01:39:00;;;;;;;6.70;2.70;;;;;;;2.58;74.33;97496.80;24412;1357;3047690;-64
2021/12/20 01:41:29;;;;;;;10.00;4.40;;;;;;;2.66;74.03;97494.91;24473;1356;3030166;-62
2021/12/20 01:43:58;;;;;;;3.80;2.10;;;;;;;2.49;74.51;97504.05;24460;1351;3026989;-64
2021/12/20 01:46:27;;;;;;;3.70;1.90;;;;;;;2.95;73.79;97497.68;24463;1357;3049554;-65
2021/12/20 01:48:58;;;;;;;5.90;2.90;;;;;;;3.35;72.22;97501.29;24453;1357;3026513;-65
2021/12/20 01:51:47;;;;;;;8.80;3.50;;;;;;;3.37;71.93;97501.89;24494;1355;3027896;-64
2021/12/20 01:54:16;;;;;;;3.80;2.50;;;;;;;3.31;72.13;97496.48;24419;1357;3068647;-68
2021/12/20 01:56:46;;;;;;;8.30;3.60;;;;;;;3.02;72.69;97505.03;24437;1357;3026951;-63
2021/12/20 01:59:15;;;;;;;5.40;3.10;;;;;;;2.82;73.30;97503.85;24489;1357;3026439;-68
2021/12/20 02:01:48;;;;;;;6.00;3.00;;;;;;;2.52;74.34;97509.98;24402;1357;3055747;-64
2021/12/20 02:04:20;;;;;;;3.60;2.30;;;;;;;2.39;74.53;97501.52;24470;1357;3026939;-66
2021/12/20 02:06:49;;;;;;;2.90;1.80;;;;;;;2.48;74.76;97500.14;24432;1359;3026974;-64
2021/12/20 02:09:19;;;;;;;3.60;1.80;;;;;;;3.01;73.58;97499.89;24485;1355;3027194;-64
2021/12/20 02:11:49;;;;;;;2.50;1.80;;;;;;;3.62;71.37;97499.77;24459;1355;3026522;-67
2021/12/20 02:14:18;;;;;;;3.40;1.70;;;;;;;3.76;70.69;97500.25;24427;1360;3052513;-68
2021/12/20 02:16:47;;;;;;;2.60;1.60;;;;;;;3.56;70.52;97509.14;24444;1357;3026845;-63
2021/12/20 02:19:17;;;;;;;3.80;2.30;;;;;;;3.36;71.41;97512.48;24437;1363;3055962;-66
2021/12/20 02:21:48;;;;;;;3.50;2.00;;;;;;;3.23;72.05;97519.02;24433;1357;3026769;-66
2021/12/20 02:24:17;;;;;;;3.30;1.70;;;;;;;3.11;72.19;97520.61;24434;1355;3028219;-65
2021/12/20 02:26:46;;;;;;;2.40;1.30;;;;;;;2.76;72.21;97531.87;24433;1357;3056101;-64
2021/12/20 02:29:16;;;;;;;0.90;0.70;;;;;;;2.62;72.20;97530.06;24393;1359;3026744;-65
2021/12/20 02:37:27;;;;;;;0.60;0.50;;;;;;;2.18;73.16;97541.99;24441;1350;3050647;-64
2021/12/20 02:39:56;;;;;;;0.90;0.50;;;;;;;2.96;71.52;97538.60;24402;1356;3053000;-66
2021/12/20 02:42:32;;;;;;;2.30;0.80;;;;;;;3.60;68.95;97530.23;24478;1357;3027118;-63
2021/12/20 02:47:39;;;;;;;2.70;0.90;;;;;;;3.45;67.86;97538.55;24417;1363;3055849;-65
2021/12/20 02:50:08;;;;;;;2.00;0.80;;;;;;;3.21;68.31;97544.05;24455;1357;3026730;-64
2021/12/20 02:52:38;;;;;;;4.10;1.80;;;;;;;3.16;68.80;97549.86;24437;1357;3026840;-63
2021/12/20 02:55:07;;;;;;;11.50;4.50;;;;;;;2.98;69.34;97547.66;24423;1360;3027701;-64
2021/12/20 02:57:39;;;;;;;14.50;5.20;;;;;;;2.88;69.18;97550.70;24422;1355;3027616;-64
2021/12/20 03:00:09;;;;;;;22.10;8.40;;;;;;;2.78;69.42;97553.21;24448;1357;3026578;-64
2021/12/20 03:02:40;;;;;;;21.40;8.30;;;;;;;2.73;69.77;97557.48;24475;1357;3026737;-65
2021/12/20 03:05:10;;;;;;;20.00;7.90;;;;;;;2.56;70.33;97555.52;24481;1357;3026666;-64
2021/12/20 03:07:47;;;;;;;26.60;8.50;;;;;;;2.54;70.10;97560.30;24465;1360;3055568;-66
2021/12/20 03:10:17;;;;;;;17.00;6.60;;;;;;;2.40;70.22;97560.39;24450;1356;3056597;-65
2021/12/20 03:12:48;;;;;;;18.60;6.20;;;;;;;2.29;70.54;97574.48;24430;1357;3026309;-64
2021/12/20 03:15:22;;;;;;;22.30;7.70;;;;;;;2.19;71.06;97573.52;24441;1361;3027082;-64
2021/12/20 03:17:53;;;;;;;27.70;9.60;;;;;;;2.08;71.57;97584.64;24462;1360;3054200;-63
2021/12/20 03:20:22;;;;;;;20.00;7.50;;;;;;;2.03;72.07;97582.20;24458;1357;3029869;-65
2021/12/20 03:22:51;;;;;;;14.90;5.50;;;;;;;2.03;72.51;97582.17;24429;1356;3026932;-63
2021/12/20 03:25:22;;;;;;;5.70;2.30;;;;;;;2.62;70.77;97580.20;24406;1355;3027540;-62
2021/12/20 03:27:51;;;;;;;2.40;1.20;;;;;;;3.14;68.69;97574.02;24445;1363;3026545;-64
2021/12/20 03:30:21;;;;;;;2.30;1.10;;;;;;;3.10;68.43;97575.33;24451;1351;3049000;-66
2021/12/20 03:32:59;;;;;;;2.60;1.10;;;;;;;3.11;68.65;97568.84;24452;1360;3054431;-64
2021/12/20 03:35:29;;;;;;;1.10;0.80;;;;;;;3.04;69.07;97572.86;24438;1361;3026974;-63
2021/12/20 03:37:58;;;;;;;1.40;0.70;;;;;;;2.79;69.75;97570.91;24435;1357;3026369;-63
2021/12/20 03:40:27;;;;;;;0.90;0.70;;;;;;;2.81;69.96;97570.61;24466;1358;3051379;-65
2021/12/20 03:42:56;;;;;;;1.20;0.90;;;;;;;2.70;70.19;97571.31;24452;1360;3027191;-66
2021/12/20 03:45:25;;;;;;;0.70;0.40;;;;;;;2.66;70.61;97581.16;24442;1357;3050752;-63
2021/12/20 03:47:54;;;;;;;1.00;0.60;;;;;;;2.48;70.78;97579.15;24460;1357;3027212;-65
2021/12/20 03:50:24;;;;;;;1.30;0.80;;;;;;;2.34;71.67;97587.00;24431;1360;3069628;-65
2021/12/20 03:52:53;;;;;;;1.40;0.80;;;;;;;2.24;72.40;97591.05;24455;1357;3026599;-64
2021/12/20 03:55:22;;;;;;;1.00;0.70;;;;;;;2.17;72.81;97581.90;24453;1360;3026579;-64
2021/12/20 03:57:51;;;;;;;0.70;0.70;;;;;;;2.22;73.07;97574.73;24420;1357;3068280;-65
2021/12/20 04:00:20;;;;;;;1.90;0.90;;;;;;;2.37;72.67;97580.08;24461;1357;3026898;-63
2021/12/20 04:02:49;;;;;;;1.10;0.90;;;;;;;2.83;71.44;97583.29;24490;1360;3026622;-64
2021/12/20 04:05:19;;;;;;;2.40;1.00;;;;;;;3.55;69.58;97583.48;24461;1360;3070499;-64
2021/12/20 04:07:48;;;;;;;1.70;1.10;;;;;;;3.73;68.90;97584.95;24449;1360;3027028;-63
2021/12/20 04:10:17;;;;;;;1.50;0.90;;;;;;;3.77;69.06;97594.23;24491;1357;3026578;-65
2021/12/20 04:12:47;;;;;;;2.70;1.10;;;;;;;3.65;68.59;97597.77;24472;1357;3071311;-64
2021/12/20 04:15:16;;;;;;;1.80;1.00;;;;;;;3.40;69.25;97604.66;24422;1356;3026464;-63
2021/12/20 04:17:45;;;;;;;1.80;1.20;;;;;;;3.23;69.71;97601.34;24456;1355;3026251;-63
2021/12/20 04:20:14;;;;;;;1.80;1.00;;;;;;;3.08;70.51;97611.05;24527;1357;3026346;-65
2021/12/20 04:22:43;;;;;;;1.90;1.10;;;;;;;3.04;70.59;97618.73;24451;1363;3048620;-64
2021/12/20 04:25:12;;;;;;;3.60;1.20;;;;;;;3.05;70.53;97617.66;24452;1358;3026457;-65
2021/12/20 04:27:41;;;;;;;2.50;1.50;;;;;;;2.91;71.45;97621.05;24440;1362;3070617;-64
2021/12/20 04:30:11;;;;;;;4.20;2.40;;;;;;;2.84;71.53;97622.02;24429;1357;3026623;-63
2021/12/20 04:32:44;;;;;;;14.80;9.80;;;;;;;2.83;71.98;97622.20;24453;1360;3051323;-64
2021/12/20 04:35:14;;;;;;;7.70;4.40;;;;;;;2.70;73.22;97633.20;24455;1357;3068897;-65
2021/12/20 04:37:46;;;;;;;5.60;4.00;;;;;;;3.34;71.94;97627.31;24460;1357;3027625;-63
2021/12/20 04:40:21;;;;;;;5.00;3.30;;;;;;;3.59;70.88;97624.96;24423;1357;3028219;-63
2021/12/20 04:42:53;;;;;;;4.60;2.50;;;;;;;3.54;71.04;97624.08;24423;1357;3053530;-65
2021/12/20 04:45:22;;;;;;;4.20;2.40;;;;;;;3.58;70.76;97631.95;24411;1355;3026319;-63
2021/12/20 04:47:52;;;;;;;4.60;2.20;;;;;;;3.49;70.79;97637.70;24398;1357;3027029;-63
2021/12/20 04:50:21;;;;;;;4.90;2.70;;;;;;;3.38;71.07;97646.12;24453;1357;3026084;-64
2021/12/20 04:52:54;;;;;;;5.90;3.50;;;;;;;3.23;71.57;97650.52;24423;1357;3058287;-63
2021/12/20 04:55:23;;;;;;;8.40;5.40;;;;;;;3.21;71.47;97656.31;24407;1353;3027187;-65
2021/12/20 04:57:53;;;;;;;9.20;5.00;;;;;;;2.84;72.85;97662.63;24471;1351;3026550;-65
2021/12/20 05:00:24;;;;;;;7.40;4.90;;;;;;;2.78;73.17;97666.25;24489;1357;3028607;-63
2021/12/20 05:02:53;;;;;;;7.80;5.50;;;;;;;2.82;73.07;97664.31;24462;1358;3049682;-66
2021/12/20 05:05:23;;;;;;;8.90;5.70;;;;;;;2.73;73.27;97669.47;24468;1359;3026422;-63
2021/12/20 05:07:54;;;;;;;7.50;4.20;;;;;;;2.55;74.21;97674.63;24454;1355;3026301;-64
2021/12/20 05:10:43;;;;;;;9.00;4.90;;;;;;;3.11;73.33;97666.91;24449;1357;3071310;-63
2021/12/20 05:13:13;;;;;;;12.00;5.10;;;;;;;3.58;71.69;97664.48;24418;1361;3026894;-63
2021/12/20 05:15:42;;;;;;;9.40;4.40;;;;;;;3.64;71.11;97667.23;24447;1357;3028151;-65
2021/12/20 05:18:11;;;;;;;7.40;4.70;;;;;;;3.45;71.59;97669.42;24472;1358;3026501;-65
2021/12/20 05:20:41;;;;;;;9.50;5.50;;;;;;;3.38;71.78;97677.33;24447;1360;3051763;-67
2021/12/20 05:23:09;;;;;;;9.10;5.10;;;;;;;3.22;71.84;97675.11;24458;1357;3026795;-63
2021/12/20 05:25:39;;;;;;;8.70;5.60;;;;;;;2.97;72.56;97683.15;24405;1357;3071024;-66
2021/12/20 05:28:08;;;;;;;9.00;5.60;;;;;;;2.85;73.05;97685.73;24437;1357;3026645;-64
2021/12/20 05:30:37;;;;;;;9.50;5.50;;;;;;;2.71;73.59;97691.59;24466;1357;3026433;-65
2021/12/20 05:33:06;;;;;;;9.60;5.80;;;;;;;2.68;73.42;97687.38;24446;1360;3070489;-63
2021/12/20 05:35:35;;;;;;;11.90;6.10;;;;;;;2.49;74.13;97689.86;24451;1357;3026715;-63
2021/12/20 05:38:05;;;;;;;5.80;3.80;;;;;;;2.33;75.02;97690.73;24457;1357;3052079;-66
2021/12/20 05:40:35;;;;;;;9.30;5.00;;;;;;;2.92;74.55;97696.92;24445;1357;3026283;-66
2021/12/20 05:43:04;;;;;;;9.70;4.60;;;;;;;3.45;72.06;97696.63;24421;1356;3026594;-67
2021/12/20 05:45:34;;;;;;;10.60;5.50;;;;;;;3.37;71.77;97693.29;24452;1358;3027043;-67
2021/12/20 05:48:04;;;;;;;9.00;5.30;;;;;;;3.20;72.11;97692.20;24444;1357;3028236;-64
2021/12/20 05:50:33;;;;;;;7.70;5.70;;;;;;;2.99;72.79;97696.55;24457;1357;3049224;-64
2021/12/20 05:53:02;;;;;;;10.50;5.70;;;;;;;2.92;72.80;97702.98;24460;1357;3026301;-66
2021/12/20 05:55:31;;;;;;;14.40;7.80;;;;;;;2.89;73.08;97701.08;24474;1360;3071732;-65
2021/12/20 05:58:00;;;;;;;12.80;6.50;;;;;;;2.59;73.96;97702.08;24420;1360;3029606;-64
2021/12/20 06:00:29;;;;;;;13.40;7.90;;;;;;;2.54;73.91;97702.73;24464;1360;3050919;-67
2021/12/20 06:02:58;;;;;;;14.50;7.20;;;;;;;2.55;73.37;97709.02;24458;1357;3026517;-65
2021/12/20 06:05:27;;;;;;;15.70;7.60;;;;;;;2.32;74.75;97711.72;24459;1357;3055424;-65
2021/12/20 06:07:57;;;;;;;11.30;5.50;;;;;;;2.15;75.62;97719.01;24480;1357;3026860;-66
2021/12/20 06:10:26;;;;;;;10.10;4.90;;;;;;;2.90;73.88;97716.27;24398;1357;3047942;-65
2021/12/20 06:12:55;;;;;;;12.00;6.10;;;;;;;3.55;71.46;97717.82;24444;1357;3026738;-63
2021/12/20 06:15:24;;;;;;;10.90;5.90;;;;;;;3.30;71.16;97714.95;24470;1357;3057300;-64
2021/12/20 06:17:54;;;;;;;10.20;6.60;;;;;;;3.34;71.16;97720.79;24436;1357;3026586;-64
2021/12/20 06:20:23;;;;;;;11.00;7.00;;;;;;;3.33;71.15;97723.13;24445;1358;3026676;-66
2021/12/20 06:22:52;;;;;;;10.50;6.60;;;;;;;3.17;71.81;97723.70;24393;1357;3028375;-65
2021/12/20 06:25:21;;;;;;;10.50;6.70;;;;;;;2.86;72.70;97722.88;24449;1357;3049486;-64
2021/12/20 06:27:50;;;;;;;10.50;6.50;;;;;;;2.65;73.51;97722.31;24451;1358;3026476;-65
2021/12/20 06:30:19;;;;;;;12.90;6.30;;;;;;;2.61;73.57;97720.79;24470;1363;3057972;-64
2021/12/20 06:32:48;;;;;;;13.30;7.50;;;;;;;2.60;73.53;97732.80;24428;1357;3027157;-65
2021/12/20 06:35:17;;;;;;;14.90;8.40;;;;;;;2.55;73.42;97737.04;24461;1360;3051389;-64
2021/12/20 06:37:59;;;;;;;14.80;7.60;;;;;;;2.54;73.46;97737.07;24433;1357;3026365;-66
2021/12/20 06:40:29;;;;;;;10.60;5.50;;;;;;;2.68;73.17;97740.14;24433;1357;3055158;-64
2021/12/20 06:42:58;;;;;;;11.00;6.10;;;;;;;3.33;72.23;97745.44;24459;1358;3026629;-64
2021/12/20 06:45:33;;;;;;;13.40;7.70;;;;;;;3.77;70.39;97748.23;24467;1357;3058740;-64
2021/12/20 06:48:02;;;;;;;14.10;8.20;;;;;;;3.88;70.02;97751.89;24472;1357;3027247;-67
2021/12/20 06:50:32;;;;;;;12.50;9.10;;;;;;;3.56;70.25;97754.48;24449;1358;3027042;-66
2021/12/20 06:53:01;;;;;;;12.70;7.10;;;;;;;3.46;70.33;97752.80;24466;1356;3026453;-65
2021/12/20 06:55:30;;;;;;;15.50;8.00;;;;;;;3.12;71.23;97756.31;24434;1357;3048634;-66
2021/12/20 06:57:59;;;;;;;9.90;6.00;;;;;;;2.90;72.15;97760.52;24420;1354;3026638;-63
2021/12/20 07:00:28;;;;;;;8.80;5.30;;;;;;;2.89;71.74;97753.97;24456;1360;3026567;-65
2021/12/20 07:02:58;;;;;;;10.60;6.30;;;;;;;2.98;71.75;97745.72;24422;1363;3052164;-67
2021/12/20 07:05:27;;;;;;;12.60;6.50;;;;;;;2.86;72.08;97748.84;24184;1360;3439697;-65
2021/12/20 07:07:56;;;;;;;9.90;5.90;;;;;;;2.74;72.97;97746.88;24490;1357;3057537;-68
2021/12/20 07:10:26;;;;;;;9.00;5.80;;;;;;;2.82;72.28;97751.98;24488;1357;3027058;-65
2021/12/20 07:12:55;;;;;;;12.60;7.60;;;;;;;2.80;71.97;97754.86;24454;1356;3026452;-67
2021/12/20 07:15:25;;;;;;;8.80;6.00;;;;;;;2.72;72.92;97755.46;24439;1355;3054111;-63
2021/12/20 07:17:55;;;;;;;12.50;6.40;;;;;;;3.16;72.17;97759.76;24418;1360;3026872;-67
2021/12/20 07:20:24;;;;;;;12.70;6.90;;;;;;;3.91;70.34;97760.35;24420;1360;3026684;-66
2021/12/20 07:22:53;;;;;;;17.10;8.40;;;;;;;4.10;68.78;97751.05;24403;1355;3056290;-67
2021/12/20 07:25:22;;;;;;;12.40;7.10;;;;;;;4.04;68.58;97756.79;24367;1357;3026762;-67
2021/12/20 07:27:52;;;;;;;13.80;8.40;;;;;;;3.78;69.14;97768.95;24440;1360;3054344;-63
2021/12/20 07:30:21;;;;;;;16.90;9.20;;;;;;;3.86;69.00;97762.90;24486;1355;3026629;-64
2021/12/20 07:32:52;;;;;;;17.40;9.80;;;;;;;3.50;69.54;97763.83;24471;1355;3026920;-65
2021/12/20 07:35:22;;;;;;;14.90;8.30;;;;;;;3.35;70.15;97774.20;24464;1357;3026589;-67
2021/12/20 07:37:54;;;;;;;17.60;10.00;;;;;;;3.23;70.47;97778.34;24476;1358;3055299;-65
2021/12/20 07:40:23;;;;;;;15.20;7.70;;;;;;;3.24;70.19;97785.06;24411;1360;3029067;-65
2021/12/20 07:42:52;;;;;;;10.50;6.60;;;;;;;3.02;70.58;97783.55;24506;1357;3026970;-66
2021/12/20 07:45:21;;;;;;;12.80;6.80;;;;;;;3.01;71.13;97790.16;24471;1356;3058545;-68
2021/12/20 07:48:09;;;;;;;12.50;7.30;;;;;;;3.09;71.37;97791.11;24446;1351;3049941;-65
2021/12/20 07:50:37;;;;;;;12.10;7.50;;;;;;;3.12;71.35;97798.23;24473;1357;3028545;-66
2021/12/20 07:53:07;;;;;;;13.10;7.00;;;;;;;3.22;70.86;97797.64;24454;1357;3058366;-65
2021/12/20 07:55:36;;;;;;;12.20;7.30;;;;;;;3.20;70.78;97800.65;24436;1359;3026481;-62
2021/12/20 07:58:23;;;;;;;14.50;9.30;;;;;;;4.12;69.35;97794.96;24445;1351;3054402;-64
2021/12/20 08:00:52;;;;;;;24.90;14.90;;;;;;;4.61;67.62;97800.76;24470;1356;3026565;-66
2021/12/20 08:03:41;;;;;;;30.50;15.20;;;;;;;4.04;67.05;97803.05;24494;1358;3052939;-65
2021/12/20 08:06:10;;;;;;;22.70;13.60;;;;;;;4.06;67.39;97807.11;24498;1357;3026591;-62
2021/12/20 08:08:57;;;;;;;20.10;13.90;;;;;;;3.71;68.02;97815.73;24444;1351;3056480;-66
2021/12/20 08:11:26;;;;;;;23.00;13.40;;;;;;;3.58;68.57;97807.02;24462;1363;3026831;-62
2021/12/20 08:14:14;;;;;;;19.60;12.60;;;;;;;3.56;68.56;97813.31;24478;1357;3052508;-67
2021/12/20 08:16:43;;;;;;;23.20;14.40;;;;;;;3.39;69.08;97813.27;24444;1357;3028593;-64
2021/12/20 08:19:13;;;;;;;22.40;12.10;;;;;;;3.18;68.92;97810.83;24491;1360;3053275;-66
2021/12/20 08:21:42;;;;;;;12.10;8.10;;;;;;;3.18;68.88;97816.53;24446;1358;3026824;-68
2021/12/20 08:24:11;;;;;;;13.30;7.70;;;;;;;2.96;68.58;97822.98;24449;1360;3052755;-67
2021/12/20 08:26:41;;;;;;;8.30;5.50;;;;;;;2.82;68.94;97822.50;24515;1354;3026465;-66
2021/12/20 08:29:11;;;;;;;9.30;5.50;;;;;;;2.74;69.16;97823.50;24529;1355;3026874;-67
2021/12/20 08:31:40;;;;;;;7.10;5.00;;;;;;;2.82;68.84;97824.42;24525;1354;3047046;-68
2021/12/20 08:34:09;;;;;;;9.60;5.20;;;;;;;2.80;68.81;97822.32;24522;1355;3027157;-67
2021/12/20 08:36:38;;;;;;;8.30;6.10;;;;;;;2.83;69.12;97819.38;24544;1352;3070203;-68
2021/12/20 08:39:08;;;;;;;8.80;5.50;;;;;;;2.74;69.20;97822.95;24500;1354;3026812;-63
2021/12/20 08:42:03;;;;;;;11.80;5.30;;;;;;;2.73;69.66;97825.27;15776;1357;3054548;-68
2021/12/20 08:45:05;;;;;;;7.50;4.60;;;;;;;2.82;69.15;97823.56;24480;1360;3068706;-63
2021/12/20 08:58:49;;;;;;;4.30;2.90;;;;;;;3.35;66.13;97814.89;16190;1366;3094388;-65
2021/12/20 09:01:18;;;;;;;3.30;2.30;;;;;;;3.25;66.36;97815.98;24317;1366;3026422;-68
2021/12/20 09:03:48;;;;;;;5.20;2.90;;;;;;;3.32;65.69;97813.50;24317;1363;3053654;-69
2021/12/20 09:06:17;;;;;;;3.20;2.60;;;;;;;3.36;65.58;97809.66;24344;1366;3027209;-66
2021/12/20 09:09:07;;;;;;;3.10;2.60;;;;;;;3.41;65.40;97803.46;24327;1368;3051572;-67
2021/12/20 09:11:36;;;;;;;5.00;2.60;;;;;;;3.40;64.54;97808.84;24370;1367;3026579;-64
2021/12/20 09:14:05;;;;;;;2.40;1.90;;;;;;;3.20;64.44;97810.73;24343;1367;3026343;-66
2021/12/20 09:16:33;;;;;;;2.80;2.00;;;;;;;3.16;63.84;97814.92;24312;1363;3051695;-66
2021/12/20 09:19:04;;;;;;;4.00;2.40;;;;;;;3.18;63.28;97816.73;24335;1370;3027171;-66
2021/12/20 09:21:34;;;;;;;3.80;2.00;;;;;;;3.15;63.01;97809.81;24363;1366;3026553;-62
2021/12/20 09:24:30;;;;;;;4.20;2.50;;;;;;;3.20;63.42;97806.92;14747;1370;3055439;-67
2021/12/20 09:26:59;;;;;;;4.20;2.20;;;;;;;3.16;63.64;97811.30;24454;1363;3051586;-72
2021/12/20 09:29:29;;;;;;;3.50;2.60;;;;;;;3.22;63.81;97811.48;24652;1369;3026555;-71
2021/12/20 09:31:58;;;;;;;4.90;2.40;;;;;;;3.22;63.65;97808.20;24295;1369;3052840;-71
2021/12/20 09:34:27;;;;;;;3.80;2.30;;;;;;;3.13;62.88;97814.55;24372;1368;3026749;-71
2021/12/20 09:36:56;;;;;;;2.80;2.00;;;;;;;3.21;62.69;97810.68;24309;1364;3048591;-71
2021/12/20 09:39:28;;;;;;;4.00;2.30;;;;;;;3.15;62.35;97811.85;24504;1366;3026141;-69
2021/12/20 09:41:59;;;;;;;3.40;2.20;;;;;;;3.04;62.47;97814.55;24804;1363;3068151;-71
2021/12/20 09:44:29;;;;;;;2.10;1.70;;;;;;;3.05;62.21;97811.42;24321;1367;3026634;-73
2021/12/20 09:47:00;;;;;;;3.70;1.90;;;;;;;3.19;61.92;97806.84;24318;1369;3026992;-72
2021/12/20 09:49:31;;;;;;;4.50;1.90;;;;;;;3.15;61.34;97810.48;24382;1363;3026571;-72
2021/12/20 09:52:01;;;;;;;8.70;3.30;;;;;;;2.89;61.70;97813.11;24425;1367;3026459;-73
2021/12/20 09:54:29;;;;;;;4.60;2.30;;;;;;;2.94;61.74;97814.45;24321;1369;3027165;-72
2021/12/20 09:57:00;;;;;;;3.80;2.10;;;;;;;3.00;61.99;97805.97;24341;1366;3049718;-71
2021/12/20 09:59:58;;;;;;;4.40;2.40;;;;;;;3.05;61.96;97805.51;20083;1363;3037076;-73
2021/12/20 10:03:13;;;;;;;4.60;1.90;;;;;;;3.26;62.30;97806.39;7841;1370;3082617;-70
2021/12/20 10:06:50;;;;;;;;;;;;;;;;;;;;;
2021/12/20 10:10:19;;;;;;;3.60;2.30;;;;;;;3.17;61.00;97806.73;7089;1376;3072953;-73
2021/12/20 10:13:36;;;;;;;2.40;1.80;;;;;;;3.14;61.49;97806.59;7203;1373;3100471;-72
2021/12/20 10:17:42;;;;;;;3.30;1.60;;;;;;;3.18;61.92;97804.63;7287;1368;3067410;-76
2021/12/20 10:21:39;;;;;;;;;;;;;;;;;;;;;
2021/12/20 10:25:41;;;;;;;2.70;2.00;;;;;;;3.29;62.06;97805.01;9003;1369;3061163;-72
2021/12/20 10:28:59;;;;;;;3.20;2.10;;;;;;;3.30;62.00;97809.48;9056;1371;3065767;-76
2021/12/20 10:32:57;;;;;;;2.90;2.10;;;;;;;3.41;61.80;97807.65;9405;1373;3063267;-73
2021/12/20 10:36:31;;;;;;;;;;;;;;;;;;;;;
2021/12/20 10:39:53;;;;;;;3.30;1.70;;;;;;;3.23;61.35;97810.08;8741;1366;3075496;-71
2021/12/20 10:43:16;;;;;;;;;;;;;;;;;;;;;
2021/12/20 10:46:22;;;;;;;;;;;;;;;3.36;59.79;97818.13;7760;1372;3082632;-73
2021/12/20 10:49:45;;;;;;;3.20;1.70;;;;;;;3.32;60.12;97823.00;7859;1372;3068885;-73
2021/12/20 10:53:42;;;;;;;3.70;2.10;;;;;;;3.41;60.23;97822.86;8323;1362;3081495;-71
2021/12/20 10:57:50;;;;;;;;;;;;;;;;;;;;;
2021/12/20 11:04:58;;;;;;;5.10;2.80;;;;;;;3.76;61.17;97834.66;4025;1358;3173508;-62
2021/12/20 11:12:05;;;;;;;5.10;2.80;;;;;;;4.52;59.67;97841.08;3729;1361;3191829;-62
2021/12/20 11:15:23;;;;;;;5.10;2.80;;;;;;;4.73;58.66;97833.16;5315;1348;5073118;-63
2021/12/20 11:18:26;;;;;;;6.00;3.20;;;;;;;4.87;57.99;97835.06;5974;1352;3177786;-61
2021/12/20 11:24:21;;;;;;;3.70;2.20;;;;;;;3.93;59.96;97836.12;24645;1349;3055544;-58
2021/12/20 11:26:51;;;;;;;4.30;2.60;;;;;;;3.75;61.23;97844.79;24567;1349;3054960;-60
2021/12/20 11:29:20;;;;;;;3.50;2.30;;;;;;;3.49;62.75;97856.48;25353;1349;3029308;-59
2021/12/20 11:31:49;;;;;;;3.30;2.40;;;;;;;3.19;65.51;97853.86;24625;1345;3055350;-56
2021/12/20 11:34:18;;;;;;;5.40;3.30;;;;;;;2.76;68.35;97858.48;24633;1345;3028789;-60
2021/12/20 11:36:47;;;;;;;4.10;3.10;;;;;;;2.64;69.77;97854.77;24626;1349;3048900;-61
2021/12/20 11:39:16;;;;;;;9.20;3.70;;;;;;;2.63;68.65;97860.53;24605;1352;3026413;-59
2021/12/20 11:41:46;;;;;;;13.10;5.30;;;;;;;2.37;69.02;97860.73;24614;1350;3070540;-56
2021/12/20 11:44:17;;;;;;;17.20;6.50;;;;;;;2.22;69.07;97859.26;24617;1349;3026646;-57
2021/12/20 11:47:08;;;;;;;19.70;8.00;;;;;;;2.24;68.28;97857.79;24628;1349;3027439;-55
2021/12/20 11:49:37;;;;;;;24.60;8.80;;;;;;;2.43;67.62;97859.40;24598;1352;3053670;-59
2021/12/20 11:52:14;;;;;;;20.00;8.30;;;;;;;2.45;67.24;97858.72;24605;1346;3026562;-56
2021/12/20 11:54:48;;;;;;;22.10;9.50;;;;;;;2.36;67.36;97862.02;24617;1346;3048481;-57
2021/12/20 11:57:40;;;;;;;15.90;6.40;;;;;;;2.45;67.37;97864.10;24604;1353;3055191;-61
2021/12/20 12:00:18;;;;;;;11.90;5.80;;;;;;;2.47;67.04;97867.45;24621;1353;3053180;-58
2021/12/20 12:02:49;;;;;;;10.50;4.70;;;;;;;2.53;66.97;97869.40;24580;1349;3070984;-56
2021/12/20 12:05:28;;;;;;;8.50;5.10;;;;;;;2.62;66.49;97872.36;24639;1345;3027205;-56
2021/12/20 12:08:26;;;;;;;10.10;5.10;;;;;;;2.62;66.71;97873.23;24601;1349;3054928;-62
2021/12/20 12:10:59;;;;;;;10.80;5.00;;;;;;;2.63;66.53;97876.09;24584;1350;3054214;-57
2021/12/20 12:13:35;;;;;;;7.60;4.10;;;;;;;2.60;67.07;97875.61;24593;1346;3054615;-59
2021/12/20 12:16:05;;;;;;;5.90;3.60;;;;;;;2.71;66.25;97874.51;24599;1345;3048790;-55
2021/12/20 12:18:48;;;;;;;8.30;4.30;;;;;;;2.75;66.19;97871.48;24620;1345;3026841;-63
2021/12/20 12:21:33;;;;;;;8.60;4.50;;;;;;;2.72;66.10;97873.07;24632;1349;3053642;-61
2021/12/20 12:24:10;;;;;;;7.00;4.20;;;;;;;2.52;65.85;97869.62;24589;1353;3071254;-62
2021/12/20 12:26:46;;;;;;;10.40;4.90;;;;;;;2.37;66.44;97866.95;24600;1347;3047962;-57
2021/12/20 12:29:20;;;;;;;9.70;6.30;;;;;;;2.29;66.45;97868.38;24616;1350;3054039;-61
2021/12/20 12:31:49;;;;;;;12.60;6.70;;;;;;;2.29;66.11;97866.30;24633;1346;3051500;-62
2021/12/20 12:34:18;;;;;;;15.90;7.80;;;;;;;2.23;66.32;97871.69;24605;1349;3026818;-57
2021/12/20 12:36:47;;;;;;;15.30;8.30;;;;;;;2.20;66.49;97867.82;24612;1349;3026620;-59
2021/12/20 12:39:28;;;;;;;13.70;7.50;;;;;;;2.23;66.62;97869.44;24602;1346;3053395;-61
2021/12/20 12:42:00;;;;;;;16.70;8.10;;;;;;;2.14;67.02;97879.04;24577;1343;3057165;-61